Hlavní strana
METAR-TAF:

METAR-TAF

Letiště :

Sinop, Turecko

zeměpisná šířka: 42-00-57N, zeměpisná délka: 035-03-59E, výška: 7 m

Aktuální stav počasí

Zpráva byla vytvořena před 8 hodinami a 27 minutami, v 16:50 UTC
Jižní vítr 3 kt, proměnlivý mezi východním a jihojihozápadním
Teplota 16°C
Vlhkost vzduchu 88%
Tlak 1021 hPa
Viditelnost 10 km a více
Skoro jasno ve výšce 2300 ft
Oblačno až skoro zataženo ve výšce 3300 ft
Oblačno až skoro zataženo ve výšce 8000 ft
slabé dešťové přeháňky

METAR: LTCM 281650Z 17003KT 100V210 9999 -SHRA FEW023 BKN033 BKN080 16/14 Q1021

Čas: 04:17 (01:17 UTC)

Předpověď počasí

Zpráva byla vytvořena před 2 hodinami a 37 minutami, v 22:40 UTC
Předpověď platná od 29 v 00 UTC do 29 v 09 UTC
Východní vítr 8 kt
Viditelnost 10 km a více
Polojasno ve výšce 3300 ft
Oblačno až skoro zataženo ve výšce 10000 ft

TAF: LTCM 282240Z 2900/2909 09008KT 9999 SCT033 BKN100

Stav a předpovědi počasí z více než 4 000 letišť (zprávy METAR a TAF).

Červené a žluté tečky na mapě představují dostupné meteorologické stanice.

Když kurzor umístíte na tečku, zobrazí se název stanice.

Pak kliknutím zobrazíte stav a předpověď počasí.

Chcete-li změnit mapu, kliknutím na zelené tlačítko se znaménkem +mapu přiblížíte, kliknutím na zelené tlačítko se znaménkem – mapu oddálíte a kliknutím na zelené šipky přejdete na sousední mapy.


METAR-TAF: